Time;durP1;ratioP1;P1;durP2;ratioP2;P2;SDS_P1;SDS_P2;PMS_P1;PMS_P2;Temp;Humidity;BMP_temperature;BMP_pressure;BME280_temperature;BME280_humidity;BME280_pressure;Samples;Min_cycle;Max_cycle;Signal;HPM_P1;HPM_P2
2022/09/17 00:00:22;;;;;;;3.20;1.60;;;12.00;99.90;;;;;;5049045;28;20014;-45
2022/09/17 00:02:54;;;;;;;2.53;1.60;;;12.00;99.90;;;;;;5048711;28;20020;-44
2022/09/17 00:05:22;;;;;;;4.68;2.42;;;12.00;99.90;;;;;;5049347;28;20075;-47
2022/09/17 00:07:48;;;;;;;3.08;1.75;;;12.00;99.90;;;;;;5049283;28;20029;-45
2022/09/17 00:10:14;;;;;;;3.90;2.08;;;12.00;99.90;;;;;;5048977;28;20492;-45
2022/09/17 00:12:40;;;;;;;5.80;1.90;;;12.00;99.90;;;;;;5047967;28;20021;-44
2022/09/17 00:15:06;;;;;;;3.47;1.77;;;12.00;99.90;;;;;;5037760;28;20026;-45
2022/09/17 00:17:32;;;;;;;7.75;2.30;;;12.00;99.90;;;;;;5048628;28;20055;-45
2022/09/17 00:19:57;;;;;;;5.45;2.35;;;12.00;99.90;;;;;;5043780;28;20033;-45
2022/09/17 00:22:23;;;;;;;6.53;2.45;;;12.00;99.90;;;;;;5038839;28;20013;-45
2022/09/17 00:24:48;;;;;;;5.75;2.40;;;11.90;99.90;;;;;;5048974;28;20540;-45
2022/09/17 00:27:14;;;;;;;13.50;3.15;;;11.90;99.90;;;;;;5048598;28;20115;-45
2022/09/17 00:29:40;;;;;;;11.80;2.50;;;11.90;99.90;;;;;;5040477;28;20049;-44
2022/09/17 00:32:05;;;;;;;7.18;2.50;;;11.90;99.90;;;;;;5046346;28;20044;-45
2022/09/17 00:34:31;;;;;;;9.50;3.25;;;12.00;99.90;;;;;;5048027;28;20029;-45
2022/09/17 00:36:56;;;;;;;11.25;3.13;;;11.90;99.90;;;;;;5048494;28;20021;-45
2022/09/17 00:39:22;;;;;;;7.70;2.80;;;11.90;99.90;;;;;;5048622;28;20021;-45
2022/09/17 00:41:47;;;;;;;7.30;2.80;;;11.90;99.90;;;;;;5048438;28;20064;-44
2022/09/17 00:44:38;;;;;;;10.02;3.00;;;11.90;99.90;;;;;;5048039;28;20036;-45
2022/09/17 00:47:04;;;;;;;5.05;2.60;;;11.90;99.90;;;;;;5048590;28;20033;-45
2022/09/17 00:49:31;;;;;;;8.60;2.50;;;11.90;99.90;;;;;;5048806;28;20033;-46
2022/09/17 00:52:07;;;;;;;12.85;2.95;;;11.90;99.90;;;;;;5050123;28;20035;-46
2022/09/17 00:54:35;;;;;;;7.07;3.10;;;11.90;99.90;;;;;;5052208;28;20029;-45
2022/09/17 00:57:02;;;;;;;8.35;3.15;;;12.00;99.90;;;;;;5052622;28;20155;-44
2022/09/17 00:59:27;;;;;;;7.30;3.17;;;12.00;99.90;;;;;;5047532;28;20079;-45
2022/09/17 01:01:53;;;;;;;11.30;3.85;;;11.90;99.90;;;;;;5048629;28;20029;-44
2022/09/17 01:04:24;;;;;;;9.20;3.30;;;11.90;99.90;;;;;;5051079;28;20033;-44
2022/09/17 01:07:07;;;;;;;10.13;3.20;;;11.90;99.90;;;;;;5051279;28;20040;-44
2022/09/17 01:09:48;;;;;;;8.10;3.00;;;11.90;99.90;;;;;;5052142;28;20056;-45
2022/09/17 01:12:19;;;;;;;5.30;3.00;;;11.90;99.90;;;;;;5052305;28;20059;-45
2022/09/17 01:15:00;;;;;;;15.40;3.65;;;11.90;99.90;;;;;;5043331;28;20048;-45
2022/09/17 01:17:35;;;;;;;15.27;3.83;;;11.90;99.90;;;;;;5036109;28;20319;-46
2022/09/17 01:20:35;;;;;;;9.75;2.90;;;11.90;99.90;;;;;;5052044;28;20349;-44
2022/09/17 01:23:31;;;;;;;6.88;3.35;;;12.00;99.90;;;;;;5051474;28;20040;-45
2022/09/17 01:26:24;;;;;;;21.75;3.65;;;12.00;99.90;;;;;;5051943;28;20025;-45
2022/09/17 01:29:11;;;;;;;13.73;3.70;;;12.00;99.90;;;;;;5050268;28;20094;-45
2022/09/17 01:32:05;;;;;;;12.70;3.38;;;12.00;99.90;;;;;;5037608;28;20029;-46
2022/09/17 01:34:41;;;;;;;16.20;3.50;;;11.90;99.90;;;;;;5050028;28;20016;-45
2022/09/17 01:37:15;;;;;;;15.75;3.45;;;11.90;99.90;;;;;;5051717;28;20112;-45
2022/09/17 01:39:59;;;;;;;14.25;3.28;;;11.90;99.90;;;;;;5051897;28;20471;-46
2022/09/17 01:42:46;;;;;;;10.43;2.97;;;11.90;99.90;;;;;;5051439;28;20474;-45
2022/09/17 01:45:16;;;;;;;10.23;3.35;;;11.90;99.90;;;;;;5051083;28;20029;-45
2022/09/17 01:47:48;;;;;;;8.68;3.40;;;11.80;99.90;;;;;;5051900;28;20139;-44
2022/09/17 01:50:25;;;;;;;11.57;2.97;;;11.80;99.90;;;;;;5051713;28;20033;-44
2022/09/17 01:52:53;;;;;;;12.80;3.45;;;11.80;99.90;;;;;;5051053;28;20029;-48
2022/09/17 01:55:23;;;;;;;17.20;3.40;;;11.80;99.90;;;;;;5051504;28;20017;-47
2022/09/17 01:58:00;;;;;;;11.02;3.42;;;11.80;99.90;;;;;;5049767;28;20033;-47
2022/09/17 02:00:26;;;;;;;15.10;3.25;;;11.80;99.90;;;;;;5035245;28;20115;-45
2022/09/17 02:02:54;;;;;;;11.98;3.45;;;11.80;99.90;;;;;;5049764;28;20786;-46
2022/09/17 02:05:28;;;;;;;8.95;2.80;;;11.80;99.90;;;;;;5051133;28;20033;-45
2022/09/17 02:08:01;;;;;;;11.35;3.30;;;11.80;99.90;;;;;;5051216;28;20037;-45
2022/09/17 02:10:33;;;;;;;9.93;3.25;;;11.80;99.90;;;;;;5051462;28;20397;-45
2022/09/17 02:13:13;;;;;;;17.88;3.25;;;11.80;99.90;;;;;;5049558;28;20419;-45
2022/09/17 02:15:48;;;;;;;12.77;2.83;;;11.90;99.90;;;;;;5038368;28;20455;-45
2022/09/17 02:18:31;;;;;;;11.70;3.53;;;11.90;99.90;;;;;;5049618;28;20025;-44
2022/09/17 02:21:09;;;;;;;14.13;3.28;;;11.80;99.90;;;;;;5051158;28;20071;-44
2022/09/17 02:23:43;;;;;;;16.67;4.25;;;11.90;99.90;;;;;;5051055;28;20119;-47
2022/09/17 02:26:14;;;;;;;15.68;4.45;;;11.90;99.90;;;;;;5042959;28;20065;-45
2022/09/17 02:28:50;;;;;;;27.13;5.63;;;11.90;99.90;;;;;;5042646;28;20013;-46
2022/09/17 02:31:16;;;;;;;16.10;4.90;;;11.90;99.90;;;;;;5050785;28;20348;-45
2022/09/17 02:33:47;;;;;;;22.92;5.00;;;11.90;99.90;;;;;;5050303;28;20040;-46
2022/09/17 02:36:12;;;;;;;15.48;5.38;;;11.90;99.90;;;;;;5043237;28;20706;-45
2022/09/17 02:38:42;;;;;;;13.52;5.32;;;11.90;99.90;;;;;;5042341;28;20136;-45
2022/09/17 02:41:24;;;;;;;20.40;6.10;;;11.80;99.90;;;;;;5050345;28;20436;-45
2022/09/17 02:44:45;;;;;;;25.48;6.28;;;11.80;99.90;;;;;;5050184;28;20517;-45
2022/09/17 02:47:22;;;;;;;;;;;11.80;99.90;;;;;;5038405;28;20422;-46
2022/09/17 02:50:07;;;;;;;21.40;6.80;;;11.80;99.90;;;;;;5050596;28;19905;-45
2022/09/17 02:52:43;;;;;;;22.40;5.85;;;11.80;99.90;;;;;;5050016;28;20028;-45
2022/09/17 02:55:18;;;;;;;28.73;6.35;;;11.70;99.90;;;;;;5049038;28;20028;-45
2022/09/17 02:57:53;;;;;;;31.33;7.35;;;11.70;99.90;;;;;;5050557;28;20025;-45
2022/09/17 03:00:21;;;;;;;25.52;6.68;;;11.70;99.90;;;;;;5050247;28;20017;-45
2022/09/17 03:02:55;;;;;;;21.92;6.30;;;11.70;99.90;;;;;;5049826;28;20056;-45
2022/09/17 03:05:22;;;;;;;33.22;6.45;;;11.70;99.90;;;;;;5049321;28;20028;-54
2022/09/17 03:07:47;;;;;;;26.23;6.63;;;11.70;99.90;;;;;;5038544;28;20491;-45
2022/09/17 03:10:14;;;;;;;19.67;5.13;;;11.70;99.90;;;;;;5048444;28;20089;-46
2022/09/17 03:12:39;;;;;;;20.35;6.45;;;11.70;99.90;;;;;;5049265;28;20036;-45
2022/09/17 03:15:06;;;;;;;22.27;7.20;;;11.70;99.90;;;;;;5044145;28;20013;-46
2022/09/17 03:17:31;;;;;;;26.33;5.25;;;11.70;99.90;;;;;;5042501;28;20021;-48
2022/09/17 03:19:57;;;;;;;24.15;5.88;;;11.70;99.90;;;;;;5048701;28;20043;-45
2022/09/17 03:22:22;;;;;;;27.23;5.70;;;11.70;99.90;;;;;;5048478;28;20033;-46
2022/09/17 03:24:48;;;;;;;33.10;5.82;;;11.70;99.90;;;;;;5050077;28;20043;-45
2022/09/17 03:27:13;;;;;;;26.75;5.25;;;11.70;99.90;;;;;;5049630;28;20074;-47
2022/09/17 03:29:39;;;;;;;16.83;4.82;;;11.70;99.90;;;;;;5049338;28;20031;-45
2022/09/17 03:32:05;;;;;;;28.88;5.25;;;11.70;99.90;;;;;;5049476;28;20051;-46
2022/09/17 03:34:30;;;;;;;18.02;4.03;;;11.70;99.90;;;;;;5049100;28;20025;-47
2022/09/17 03:36:56;;;;;;;28.58;5.22;;;11.60;99.90;;;;;;5049474;28;20545;-48
2022/09/17 03:39:21;;;;;;;25.55;5.13;;;11.60;99.90;;;;;;5049600;28;20032;-46
2022/09/17 03:41:47;;;;;;;25.63;5.22;;;11.60;99.90;;;;;;5049662;28;20044;-45
2022/09/17 03:44:14;;;;;;;19.60;4.38;;;11.60;99.90;;;;;;5045493;28;20030;-48
2022/09/17 03:46:40;;;;;;;18.75;4.22;;;11.60;99.90;;;;;;5040912;28;20021;-46
2022/09/17 03:49:05;;;;;;;24.33;4.93;;;11.60;99.90;;;;;;5049702;28;20466;-47
2022/09/17 03:51:31;;;;;;;27.98;5.07;;;11.60;99.90;;;;;;5049614;28;20037;-46
2022/09/17 03:53:56;;;;;;;28.98;5.15;;;11.60;99.90;;;;;;5048642;28;20056;-45
2022/09/17 03:56:22;;;;;;;18.13;5.10;;;11.60;99.90;;;;;;5049098;28;20095;-48
2022/09/17 03:58:47;;;;;;;24.70;4.78;;;11.50;99.90;;;;;;5049570;28;20048;-46
2022/09/17 04:01:13;;;;;;;32.80;4.95;;;11.60;99.90;;;;;;5049086;28;20066;-45
2022/09/17 04:03:39;;;;;;;19.90;3.72;;;11.60;99.90;;;;;;5048554;28;20040;-46
2022/09/17 04:06:04;;;;;;;16.52;4.50;;;11.60;99.90;;;;;;5049134;28;20053;-48
2022/09/17 04:08:30;;;;;;;16.77;4.15;;;11.60;99.90;;;;;;5049245;28;20479;-45
2022/09/17 04:10:55;;;;;;;28.63;5.45;;;11.60;99.90;;;;;;5048867;28;20029;-46
2022/09/17 04:13:21;;;;;;;32.28;5.85;;;11.60;99.90;;;;;;5048416;28;20017;-48
2022/09/17 04:15:47;;;;;;;15.18;4.00;;;11.60;99.90;;;;;;5038084;28;20383;-46
2022/09/17 04:18:13;;;;;;;17.90;4.47;;;11.60;99.90;;;;;;5047220;28;20025;-48
2022/09/17 04:20:39;;;;;;;19.05;4.10;;;11.60;99.90;;;;;;5049153;28;20062;-46
2022/09/17 04:23:06;;;;;;;22.70;4.55;;;11.60;99.90;;;;;;5048310;28;20036;-45
2022/09/17 04:25:32;;;;;;;22.60;5.03;;;11.60;99.90;;;;;;5048475;28;20479;-45
2022/09/17 04:27:57;;;;;;;14.95;4.68;;;11.60;99.90;;;;;;5048498;28;20549;-46
2022/09/17 04:30:23;;;;;;;17.45;4.68;;;11.60;99.90;;;;;;5048428;28;20121;-49
2022/09/17 04:32:48;;;;;;;22.67;4.88;;;11.50;99.90;;;;;;5047988;28;20035;-46
2022/09/17 04:35:14;;;;;;;25.35;4.70;;;11.50;99.90;;;;;;5048456;28;20033;-47
2022/09/17 04:37:39;;;;;;;15.52;4.03;;;11.50;99.90;;;;;;5045484;28;20024;-44
2022/09/17 04:40:06;;;;;;;14.05;4.65;;;11.50;99.90;;;;;;5040029;28;20033;-45
2022/09/17 04:42:31;;;;;;;15.93;4.05;;;11.50;99.90;;;;;;5048115;28;20506;-45
2022/09/17 04:44:57;;;;;;;20.58;4.55;;;11.50;99.90;;;;;;5048423;28;20055;-47
2022/09/17 04:47:23;;;;;;;18.27;4.88;;;11.50;99.90;;;;;;5048434;28;20025;-47
2022/09/17 04:49:48;;;;;;;22.15;4.80;;;11.50;99.90;;;;;;5048627;28;20028;-45
2022/09/17 04:52:14;;;;;;;17.80;4.57;;;11.50;99.90;;;;;;5045735;28;20425;-45
2022/09/17 04:54:40;;;;;;;18.60;4.65;;;11.50;99.90;;;;;;5035588;28;20100;-45
2022/09/17 04:57:05;;;;;;;20.23;4.72;;;11.50;99.90;;;;;;5045571;28;20021;-45
2022/09/17 04:59:31;;;;;;;19.02;4.50;;;11.40;99.90;;;;;;5044762;28;20029;-45
2022/09/17 05:01:56;;;;;;;13.80;4.18;;;11.50;99.90;;;;;;5039618;28;20029;-46
2022/09/17 05:04:21;;;;;;;19.83;5.18;;;11.50;99.90;;;;;;5044696;28;20025;-45
2022/09/17 05:06:48;;;;;;;25.17;5.47;;;11.40;99.90;;;;;;5038973;28;20052;-45
2022/09/17 05:09:13;;;;;;;12.80;3.75;;;11.40;99.90;;;;;;5045691;28;20021;-46
2022/09/17 05:11:39;;;;;;;16.52;4.20;;;11.40;99.90;;;;;;5039330;28;20355;-45
2022/09/17 05:14:05;;;;;;;15.18;3.70;;;11.40;99.90;;;;;;5045282;28;20386;-45
2022/09/17 05:16:30;;;;;;;16.77;3.60;;;11.40;99.90;;;;;;5038371;28;20144;-46
2022/09/17 05:18:56;;;;;;;13.60;3.42;;;11.40;99.90;;;;;;5025507;28;20079;-47
2022/09/17 05:21:22;;;;;;;23.60;4.10;;;11.40;99.90;;;;;;5023609;28;20044;-45
2022/09/17 05:23:48;;;;;;;17.25;4.18;;;11.30;99.90;;;;;;5018097;28;20029;-45
2022/09/17 05:26:14;;;;;;;24.63;3.80;;;11.40;99.90;;;;;;5022671;28;20038;-45
2022/09/17 05:28:40;;;;;;;21.48;3.58;;;11.40;99.90;;;;;;5022282;28;20025;-45
2022/09/17 05:31:05;;;;;;;15.70;2.65;;;11.40;99.90;;;;;;5023081;28;20116;-48
2022/09/17 05:33:31;;;;;;;20.05;3.40;;;11.40;99.90;;;;;;5022218;28;20030;-48
2022/09/17 05:35:56;;;;;;;10.70;2.97;;;11.50;99.90;;;;;;5017611;28;20058;-44
2022/09/17 05:38:22;;;;;;;16.17;4.03;;;11.40;99.90;;;;;;5029596;28;20013;-47
2022/09/17 05:40:47;;;;;;;14.00;3.35;;;11.40;99.90;;;;;;5026830;28;20101;-47
2022/09/17 05:43:13;;;;;;;13.05;2.92;;;11.40;99.90;;;;;;5028338;28;20018;-44
2022/09/17 05:45:39;;;;;;;13.10;2.65;;;11.40;99.90;;;;;;5025955;28;20096;-44
2022/09/17 05:48:08;;;;;;;20.48;3.60;;;11.40;99.90;;;;;;5027243;28;20118;-45
2022/09/17 05:50:34;;;;;;;15.77;3.63;;;11.40;99.90;;;;;;5027043;28;20074;-46
2022/09/17 05:53:09;;;;;;;10.82;3.28;;;11.30;99.90;;;;;;5026660;28;20295;-45
2022/09/17 05:55:34;;;;;;;14.77;3.22;;;11.20;99.90;;;;;;5024077;28;20036;-45
2022/09/17 05:58:00;;;;;;;27.33;4.40;;;11.10;99.90;;;;;;5027303;28;20022;-48
2022/09/17 06:00:26;;;;;;;18.42;4.60;;;11.10;99.90;;;;;;5021101;28;20044;-45
2022/09/17 06:02:57;;;;;;;25.48;4.80;;;11.00;99.90;;;;;;5033245;28;20134;-47
2022/09/17 06:05:23;;;;;;;15.80;3.17;;;11.00;99.90;;;;;;5029475;28;20079;-47
2022/09/17 06:07:49;;;;;;;19.00;3.80;;;11.00;99.90;;;;;;5039038;28;20049;-45
2022/09/17 06:10:15;;;;;;;11.10;3.80;;;11.10;99.90;;;;;;5050098;28;20406;-50
2022/09/17 06:12:41;;;;;;;22.33;3.78;;;11.10;99.90;;;;;;5037488;28;20112;-48
2022/09/17 06:15:06;;;;;;;13.77;3.60;;;11.20;99.90;;;;;;5047965;28;20098;-48
2022/09/17 06:17:33;;;;;;;24.17;3.53;;;11.20;99.90;;;;;;5043137;28;20049;-45
2022/09/17 06:19:59;;;;;;;20.70;4.50;;;11.20;99.90;;;;;;5047304;28;20033;-48
2022/09/17 06:22:25;;;;;;;19.45;3.75;;;11.30;99.90;;;;;;5041063;28;20071;-48
2022/09/17 06:24:50;;;;;;;13.73;3.45;;;11.40;99.90;;;;;;5040207;28;20111;-45
2022/09/17 06:27:16;;;;;;;14.88;4.47;;;11.30;99.90;;;;;;5043212;28;20036;-45
2022/09/17 06:29:41;;;;;;;16.85;3.20;;;11.40;99.90;;;;;;5041059;28;20356;-47
2022/09/17 06:32:11;;;;;;;23.08;3.83;;;11.40;99.90;;;;;;5046263;28;20057;-48
2022/09/17 06:34:37;;;;;;;25.98;4.32;;;11.40;99.90;;;;;;5041414;28;20328;-49
2022/09/17 06:37:03;;;;;;;19.40;3.53;;;11.40;99.90;;;;;;5047628;28;20053;-46
2022/09/17 06:39:29;;;;;;;12.80;3.08;;;11.50;99.90;;;;;;5042013;28;20044;-44
2022/09/17 06:41:54;;;;;;;17.40;3.95;;;11.50;99.90;;;;;;5049863;28;20029;-44
2022/09/17 06:44:20;;;;;;;15.15;4.13;;;11.50;99.90;;;;;;5037546;28;20549;-45
2022/09/17 06:46:48;;;;;;;19.38;3.72;;;11.60;99.90;;;;;;5044350;28;20036;-45
2022/09/17 06:49:16;;;;;;;21.17;3.80;;;11.60;99.90;;;;;;5039641;28;20040;-48
2022/09/17 06:51:42;;;;;;;15.98;3.80;;;11.70;99.90;;;;;;5044653;28;20174;-45
2022/09/17 06:54:08;;;;;;;16.00;3.65;;;11.70;99.90;;;;;;5039929;28;20104;-45
2022/09/17 06:56:33;;;;;;;20.15;3.95;;;11.80;99.90;;;;;;5043415;28;20025;-45
2022/09/17 06:58:59;;;;;;;22.65;4.05;;;11.90;99.90;;;;;;5044631;28;20088;-45
2022/09/17 07:01:25;;;;;;;16.83;3.33;;;12.00;99.90;;;;;;5034169;28;20029;-44
2022/09/17 07:03:50;;;;;;;20.10;3.42;;;12.00;99.90;;;;;;5047608;28;20533;-45
2022/09/17 07:06:16;;;;;;;23.38;3.47;;;12.10;99.90;;;;;;5039764;28;20029;-44
2022/09/17 07:08:42;;;;;;;23.27;4.32;;;12.20;99.90;;;;;;5049268;28;20021;-44
2022/09/17 07:11:07;;;;;;;18.83;3.45;;;12.30;99.90;;;;;;5040968;28;20108;-46
2022/09/17 07:13:33;;;;;;;11.48;3.50;;;12.40;99.90;;;;;;5045334;28;20024;-45
2022/09/17 07:16:00;;;;;;;20.80;3.88;;;12.40;99.90;;;;;;5037780;28;20380;-44
2022/09/17 07:18:26;;;;;;;12.45;2.92;;;12.50;99.90;;;;;;5009107;28;20044;-45
2022/09/17 07:20:57;;;;;;;14.95;3.47;;;12.60;99.90;;;;;;5036502;28;20104;-45
2022/09/17 07:23:23;;;;;;;;;;;12.80;99.90;;;;;;5048735;28;20021;-44
2022/09/17 07:25:56;;;;;;;15.25;2.90;;;12.80;99.90;;;;;;5039229;28;19940;-45
2022/09/17 07:28:23;;;;;;;15.02;2.97;;;12.80;99.90;;;;;;5048821;28;20379;-45
2022/09/17 07:30:49;;;;;;;11.10;2.80;;;12.90;99.90;;;;;;5039560;28;20550;-44
2022/09/17 07:33:16;;;;;;;9.00;2.65;;;13.00;99.90;;;;;;5047693;28;20132;-44
2022/09/17 07:35:42;;;;;;;31.70;12.60;;;13.10;99.90;;;;;;5040322;28;20552;-46
2022/09/17 07:38:08;;;;;;;22.73;6.13;;;13.30;99.90;;;;;;5047435;28;20021;-45
2022/09/17 07:40:33;;;;;;;11.85;3.03;;;13.30;99.90;;;;;;5037698;28;20442;-45
2022/09/17 07:42:59;;;;;;;14.88;2.25;;;13.40;99.90;;;;;;5040400;28;20025;-45
2022/09/17 07:45:24;;;;;;;16.33;3.03;;;13.40;99.90;;;;;;5040288;28;20023;-45
2022/09/17 07:47:50;;;;;;;13.02;3.22;;;13.60;99.90;;;;;;5040875;28;20032;-45
2022/09/17 07:50:16;;;;;;;17.17;3.45;;;13.50;99.90;;;;;;5041616;28;20106;-44
2022/09/17 07:52:46;;;;;;;19.15;3.30;;;13.50;99.90;;;;;;5040147;28;20522;-47
2022/09/17 07:55:12;;;;;;;15.30;3.47;;;13.50;99.90;;;;;;5045117;28;20018;-46
2022/09/17 07:57:37;;;;;;;15.50;2.58;;;13.60;99.90;;;;;;5040449;28;20549;-47
2022/09/17 08:00:04;;;;;;;19.85;3.42;;;13.50;99.90;;;;;;5046831;28;20446;-48
2022/09/17 08:02:29;;;;;;;14.43;3.22;;;13.40;99.90;;;;;;5039154;28;20027;-48
2022/09/17 08:04:55;;;;;;;18.35;3.88;;;13.40;99.90;;;;;;5049222;28;20021;-48
2022/09/17 08:07:20;;;;;;;13.18;3.50;;;13.40;99.90;;;;;;5048038;28;20032;-47
2022/09/17 08:09:46;;;;;;;13.70;2.90;;;13.40;99.90;;;;;;5042945;28;20075;-49
2022/09/17 08:12:11;;;;;;;12.98;2.78;;;13.70;99.90;;;;;;5045667;28;20075;-47
2022/09/17 08:14:37;;;;;;;15.02;3.25;;;14.10;99.90;;;;;;5048124;28;20025;-46
2022/09/17 08:17:06;;;;;;;16.63;2.80;;;14.60;99.90;;;;;;5048927;28;20017;-47
2022/09/17 08:19:32;;;;;;;12.63;3.45;;;15.20;99.90;;;;;;5049013;28;20107;-48
2022/09/17 08:21:57;;;;;;;13.98;3.00;;;16.30;99.90;;;;;;5048854;28;20112;-47
2022/09/17 08:24:23;;;;;;;13.63;2.95;;;17.50;99.90;;;;;;5040592;28;20237;-48
2022/09/17 08:26:48;;;;;;;11.55;2.85;;;18.50;98.20;;;;;;5040363;28;20055;-47
2022/09/17 08:29:14;;;;;;;14.52;2.95;;;18.70;96.50;;;;;;5048476;28;20061;-47
2022/09/17 08:31:39;;;;;;;11.98;2.90;;;18.50;96.70;;;;;;5041189;28;20273;-49
2022/09/17 08:34:08;;;;;;;8.43;2.92;;;18.50;95.80;;;;;;5045608;28;20024;-48
2022/09/17 08:36:34;;;;;;;12.48;2.75;;;18.20;96.40;;;;;;5048762;28;20327;-48
2022/09/17 08:38:59;;;;;;;10.15;2.78;;;18.00;96.00;;;;;;5049066;28;20071;-49
2022/09/17 08:41:34;;;;;;;11.77;2.88;;;17.50;95.80;;;;;;5048053;28;20086;-49
2022/09/17 08:44:03;;;;;;;10.80;3.63;;;18.20;95.50;;;;;;5047903;28;20025;-48
2022/09/17 08:46:41;;;;;;;12.05;2.60;;;19.10;94.20;;;;;;5048396;28;20457;-48
2022/09/17 08:49:32;;;;;;;10.93;2.50;;;19.40;93.40;;;;;;5045855;28;20043;-48
2022/09/17 08:52:17;;;;;;;11.40;2.78;;;19.40;92.60;;;;;;5015452;28;20022;-49
2022/09/17 08:55:10;;;;;;;14.02;3.28;;;19.60;91.80;;;;;;5014508;28;20735;-48
2022/09/17 08:57:55;;;;;;;14.30;3.28;;;20.50;90.20;;;;;;5012198;28;20072;-51
2022/09/17 09:00:22;;;;;;;11.43;2.70;;;21.00;88.10;;;;;;5010261;28;20067;-48
2022/09/17 09:03:36;;;;;;;9.88;3.05;;;20.20;90.30;;;;;;5038356;28;20021;-49
2022/09/17 09:06:01;;;;;;;12.95;2.83;;;20.90;89.50;;;;;;5048281;28;20028;-47
2022/09/17 09:08:35;;;;;;;12.85;3.65;;;20.60;87.30;;;;;;5047803;28;20033;-50
2022/09/17 09:11:04;;;;;;;9.43;2.72;;;19.90;88.50;;;;;;5047968;28;20095;-48
2022/09/17 09:13:41;;;;;;;7.88;2.58;;;19.90;90.00;;;;;;5039922;28;20530;-48
2022/09/17 09:16:17;;;;;;;13.63;3.03;;;20.70;86.70;;;;;;5048602;28;20029;-47
2022/09/17 09:18:42;;;;;;;13.75;3.15;;;22.00;85.60;;;;;;5050490;28;20029;-47
2022/09/17 09:21:22;;;;;;;15.52;4.72;;;21.80;82.10;;;;;;5051572;28;20404;-47
2022/09/17 09:24:11;;;;;;;9.45;3.17;;;22.00;79.50;;;;;;5051325;28;20021;-46
2022/09/17 09:27:09;;;;;;;14.10;3.75;;;22.60;77.10;;;;;;5051927;28;20029;-47
2022/09/17 09:29:46;;;;;;;8.88;2.38;;;21.90;79.70;;;;;;5029724;28;20061;-49
2022/09/17 09:32:25;;;;;;;12.07;2.75;;;21.70;78.80;;;;;;5049180;28;20036;-51
2022/09/17 09:34:54;;;;;;;8.87;2.77;;;21.00;78.00;;;;;;5051657;28;20067;-48
2022/09/17 09:37:26;;;;;;;10.88;2.60;;;20.70;78.60;;;;;;5048785;28;20518;-47
2022/09/17 09:39:54;;;;;;;11.80;3.20;;;19.70;81.90;;;;;;5039720;28;20017;-48
2022/09/17 09:42:29;;;;;;;14.05;3.20;;;19.20;83.70;;;;;;5050619;28;20021;-47
2022/09/17 09:45:01;;;;;;;16.92;5.38;;;18.40;86.70;;;;;;5043254;28;20018;-47
2022/09/17 09:47:39;;;;;;;18.73;3.33;;;19.30;87.30;;;;;;5029933;28;20463;-47
2022/09/17 09:50:13;;;;;;;10.57;3.50;;;19.60;82.40;;;;;;5031862;28;20318;-50
2022/09/17 09:52:55;;;;;;;15.98;3.05;;;20.00;84.60;;;;;;5031087;28;20482;-51
2022/09/17 09:55:55;;;;;;;9.73;2.95;;;20.30;80.50;;;;;;5031487;28;20029;-50
2022/09/17 09:58:37;;;;;;;23.05;3.33;;;19.60;82.30;;;;;;5031653;28;20021;-47
2022/09/17 10:01:21;;;;;;;11.50;2.83;;;18.90;84.70;;;;;;5038403;28;20021;-47
2022/09/17 10:03:48;;;;;;;14.90;2.80;;;18.00;87.00;;;;;;5046125;28;20025;-49
2022/09/17 10:06:15;;;;;;;15.40;3.13;;;18.10;89.20;;;;;;5051095;28;20037;-51
2022/09/17 10:08:54;;;;;;;10.60;2.83;;;19.10;87.00;;;;;;5044031;28;20033;-47
2022/09/17 10:11:22;;;;;;;9.00;2.75;;;20.50;81.40;;;;;;5042798;28;20475;-48
2022/09/17 10:13:48;;;;;;;13.88;3.20;;;21.00;80.50;;;;;;5050711;28;20112;-49
2022/09/17 10:16:24;;;;;;;8.68;2.70;;;21.60;79.00;;;;;;5049428;28;20136;-49
2022/09/17 10:19:11;;;;;;;11.27;2.72;;;21.80;75.90;;;;;;5042413;28;20078;-48
2022/09/17 10:21:41;;;;;;;10.48;2.67;;;22.50;75.70;;;;;;5050939;28;20317;-49
2022/09/17 10:24:22;;;;;;;12.48;3.03;;;23.60;73.10;;;;;;5048865;28;20415;-48
2022/09/17 10:26:48;;;;;;;11.90;2.92;;;24.60;71.90;;;;;;5049267;28;20120;-46
2022/09/17 10:29:17;;;;;;;12.27;2.40;;;23.90;67.70;;;;;;5049125;28;20582;-48
2022/09/17 10:31:50;;;;;;;11.70;2.83;;;24.00;68.10;;;;;;5044295;28;20550;-46
2022/09/17 10:34:27;;;;;;;14.05;3.40;;;22.90;69.80;;;;;;5040259;28;20044;-47
2022/09/17 10:36:57;;;;;;;9.95;2.65;;;22.00;70.70;;;;;;5049131;28;20021;-46
2022/09/17 10:39:28;;;;;;;11.53;3.20;;;21.20;71.60;;;;;;5048508;28;20422;-47
2022/09/17 10:41:59;;;;;;;11.73;2.88;;;21.80;73.30;;;;;;5032823;28;20107;-47
2022/09/17 10:44:30;;;;;;;11.93;2.97;;;21.80;70.80;;;;;;5021385;28;20029;-47
2022/09/17 10:47:24;;;;;;;11.80;2.33;;;21.80;71.60;;;;;;5037072;28;20518;-47
2022/09/17 10:49:59;;;;;;;14.48;3.42;;;21.60;70.30;;;;;;5040051;28;20060;-47
2022/09/17 10:52:37;;;;;;;7.30;2.00;;;22.40;70.20;;;;;;5045365;28;20486;-47
2022/09/17 10:55:40;;;;;;;12.52;2.63;;;23.80;65.60;;;;;;5040983;28;20487;-47
2022/09/17 10:58:09;;;;;;;10.40;3.13;;;23.50;64.10;;;;;;5047053;28;20071;-47
2022/09/17 11:01:06;;;;;;;8.32;2.75;;;22.50;66.70;;;;;;5041289;28;20486;-46
2022/09/17 11:04:02;;;;;;;8.45;2.10;;;20.90;68.30;;;;;;5038678;28;20025;-46
2022/09/17 11:06:56;;;;;;;8.77;2.13;;;20.90;73.40;;;;;;5034252;28;20618;-46
2022/09/17 11:09:52;;;;;;;15.05;2.83;;;22.40;68.70;;;;;;5041127;28;20018;-46
2022/09/17 11:12:24;;;;;;;9.48;2.67;;;23.20;67.10;;;;;;5048931;28;20061;-47
2022/09/17 11:15:11;;;;;;;7.82;2.35;;;23.70;64.60;;;;;;5037922;28;20022;-47
2022/09/17 11:18:01;;;;;;;7.22;2.40;;;24.40;64.40;;;;;;5009106;28;20080;-47
2022/09/17 11:20:45;;;;;;;9.32;2.45;;;25.30;61.10;;;;;;5028228;28;20021;-47
2022/09/17 11:23:22;;;;;;;14.23;2.67;;;25.50;60.10;;;;;;5047136;28;20519;-46
2022/09/17 11:25:57;;;;;;;10.88;3.03;;;25.50;56.90;;;;;;5040513;28;20013;-46
2022/09/17 11:28:50;;;;;;;8.00;1.90;;;26.00;58.00;;;;;;5016774;28;20022;-47
2022/09/17 11:31:48;;;;;;;10.52;2.30;;;24.10;60.30;;;;;;5036765;28;20075;-48
2022/09/17 11:34:54;;;;;;;5.22;1.88;;;22.90;66.70;;;;;;5040102;28;20313;-46
2022/09/17 11:37:29;;;;;;;6.68;1.65;;;19.80;80.10;;;;;;5029227;28;20441;-46
2022/09/17 11:40:01;;;;;;;10.25;1.73;;;17.90;86.40;;;;;;5044101;28;20039;-46
2022/09/17 11:42:32;;;;;;;5.97;1.48;;;16.10;92.30;;;;;;5033418;28;20025;-46
2022/09/17 11:45:09;;;;;;;7.18;1.85;;;15.20;94.60;;;;;;5042901;28;20390;-46
2022/09/17 11:47:56;;;;;;;8.43;2.30;;;14.20;98.60;;;;;;5039121;28;20043;-46
2022/09/17 11:50:34;;;;;;;5.32;1.10;;;13.20;99.90;;;;;;5042836;28;20025;-46
2022/09/17 11:53:22;;;;;;;11.10;1.92;;;13.00;99.90;;;;;;5045403;28;20310;-46
2022/09/17 11:56:14;;;;;;;4.18;1.48;;;12.70;99.90;;;;;;5038697;28;20040;-46
2022/09/17 11:58:45;;;;;;;3.72;1.27;;;12.60;99.90;;;;;;5037211;28;20076;-47
2022/09/17 12:01:40;;;;;;;6.30;1.50;;;12.50;99.90;;;;;;5030035;28;20025;-47
2022/09/17 12:04:46;;;;;;;14.70;1.80;;;12.50;99.90;;;;;;5019838;28;20429;-46
2022/09/17 12:07:25;;;;;;;9.65;1.67;;;12.60;99.90;;;;;;5024328;28;20017;-46
2022/09/17 12:10:17;;;;;;;5.78;1.98;;;12.80;99.90;;;;;;5017140;28;20018;-47
2022/09/17 12:12:51;;;;;;;4.68;1.80;;;12.70;99.90;;;;;;5022180;28;20037;-48
2022/09/17 12:15:23;;;;;;;8.75;1.75;;;12.50;99.90;;;;;;5017829;28;20375;-50
2022/09/17 12:18:03;;;;;;;5.57;1.50;;;12.50;99.90;;;;;;5040603;28;20382;-47
2022/09/17 12:20:34;;;;;;;5.53;1.98;;;12.40;99.90;;;;;;5045836;28;20481;-47
2022/09/17 12:23:05;;;;;;;15.65;5.72;;;12.10;99.90;;;;;;5039794;28;20112;-47
2022/09/17 12:25:46;;;;;;;10.70;4.13;;;11.90;99.90;;;;;;5045581;28;20035;-48
2022/09/17 12:28:31;;;;;;;6.78;1.67;;;11.60;99.90;;;;;;5034162;28;20026;-48
2022/09/17 12:31:19;;;;;;;5.07;1.88;;;11.40;99.90;;;;;;5010957;28;20029;-47
2022/09/17 12:33:56;;;;;;;4.00;1.25;;;11.40;99.90;;;;;;5029881;28;20029;-50
2022/09/17 12:36:49;;;;;;;7.32;1.38;;;11.60;99.90;;;;;;5021619;28;20036;-47
2022/09/17 12:39:40;;;;;;;5.22;1.30;;;11.70;99.90;;;;;;5027716;28;20548;-47
2022/09/17 12:42:35;;;;;;;5.20;1.33;;;11.70;99.90;;;;;;5028787;28;20025;-47
2022/09/17 12:45:19;;;;;;;3.80;1.23;;;12.00;99.90;;;;;;5038428;28;20375;-47
2022/09/17 12:48:08;;;;;;;5.07;1.45;;;12.00;99.90;;;;;;5047908;28;20099;-46
2022/09/17 12:51:09;;;;;;;6.82;1.60;;;12.00;99.90;;;;;;5037809;28;20036;-50
2022/09/17 12:53:41;;;;;;;6.22;1.88;;;12.00;99.90;;;;;;5007424;28;20041;-47
2022/09/17 12:56:34;;;;;;;5.47;1.17;;;11.90;99.90;;;;;;5037575;28;20035;-46
2022/09/17 12:59:17;;;;;;;3.63;1.48;;;11.70;99.90;;;;;;5047458;28;20060;-51
2022/09/17 13:01:57;;;;;;;9.45;1.48;;;11.50;99.90;;;;;;5037007;28;20428;-47
2022/09/17 13:04:56;;;;;;;6.73;2.03;;;11.50;99.90;;;;;;5047883;28;20044;-48
2022/09/17 13:08:02;;;;;;;7.30;1.40;;;11.50;99.90;;;;;;5038028;28;20263;-49